Nearby METAR Reports

 

KBUF - Buffalo/Cheektow, New York, USA
Distance from station: ENE 2mi, 3km
Updated: 05/23/2018 9:54am
Partly cloudy
Partly cloudy
 Wind from SW
Wind: SW 12 mph , 19 km/h
Temperature: 59°F , 15°C
Dew Point: 55°F , 13°C
Humidity: 88%
Barometer: 30.09 inHg , 1019 hPa
Clouds: Partly cloudy
Visibility: 10 miles , 16 km
Cloud details: Partly cloudy 1000 ft
2018/05/23 13:54 KBUF 231354Z 22010KT 10SM SCT010 15/13 A3009 RMK AO2 SLP189 T01500128
KIAG - Niagara Falls, New York, USA
Distance from station: NNW 16mi, 25km
Updated: 05/23/2018 9:53am
Clear
Clear
 Wind from SW
Wind: SW 7 mph , 11 km/h
Temperature: 66°F , 19°C
Dew Point: 54°F , 12°C
Humidity: 64%
Barometer: 30.07 inHg , 1018.3 hPa
Clouds: Clear
Visibility: 10 miles , 16 km
2018/05/23 13:53 KIAG 231353Z 23006KT 10SM CLR 19/12 A3007 RMK AO2 SLP183 T01890122
 
CYSN - St. Catharines A, Ontario, Canada
Distance from station: NW 28mi, 45km
Updated: 05/23/2018 10:00am
Few Clouds
Few Clouds
 Wind from W
Wind: W 7 mph , 11 km/h
Temperature: 64°F , 18°C
Dew Point: 50°F , 10°C
Humidity: 60%
Barometer: 30.07 inHg , 1018.3 hPa
Clouds: Few Clouds
Visibility: 15 miles , 24 km
Cloud details: Few Clouds 25000 ft
2018/05/23 14:00 CYSN 231400Z 28006KT 15SM FEW250 18/10 A3007 RMK CI1 SLP184 DENSITY ALT 700FT
CWWZ - Port Weller (mar, Ontario, Canada
Distance from station: NW 32mi, 51km
Updated: 05/23/2018 10:00am

 Wind from SW
Wind: SW 2 mph , 4 km/h
Temperature: 63°F , 17°C
Dew Point: 54°F , 12°C
Humidity: 73%
2018/05/23 14:00 CWWZ 231400Z AUTO 23002KT 17/12 RMK AO1 SLP182 T01720117 51008
 
CXVN - Vineland (au8), Ontario, Canada
Distance from station: WNW 37mi, 59km
Updated: 05/23/2018 10:00am

 Wind from W
Wind: W 7 mph , 11 km/h
Temperature: 66°F , 19°C
Dew Point: 50°F , 10°C
Humidity: 56%
2018/05/23 14:00 CXVN 231400Z AUTO 27006KT 19/10 RMK AO1 SLP175 T01860101 51008
KDKK - Dunkirk, New York, USA
Distance from station: SW 39mi, 63km
Updated: 05/23/2018 10:23am
Overcast
Overcast
 Wind from WSW
Wind: WSW 8 mph , 13 km/h
Temperature: 61°F , 16°C
Dew Point: 55°F , 13°C
Humidity: 83%
Barometer: 30.13 inHg , 1020.3 hPa
Clouds: Overcast
Visibility: 8 miles , 13 km
Cloud details: Overcast 1100 ft
2018/05/23 14:23 KDKK 231423Z AUTO 24007KT 8SM OVC011 16/13 A3013 RMK AO2 CIG 007V013 T01560133
 
KOLE - Olean, New York, USA
Distance from station: SSE 52mi, 83km
Updated: 05/23/2018 10:15am
Mostly cloudy
Mostly cloudy
 Wind from NW
Wind: NW 6 mph , 9 km/h
Temperature: 57°F , 14°C
Dew Point: 54°F , 12°C
Humidity: 88%
Barometer: 30.12 inHg , 1020 hPa
Clouds: Mostly cloudy
Visibility: 10 miles , 16 km
Cloud details: Partly cloudy 900 ft
Mostly cloudy 1400 ft
2018/05/23 14:15 KOLE 231415Z AUTO 31005KT 10SM SCT009 BKN014 14/12 A3012 RMK AO2
KROC - Rochester, New York, USA
Distance from station: ENE 56mi, 91km
Updated: 05/23/2018 9:54am
Few Clouds
Few Clouds
 Wind from W
Wind: W 6 mph , 9 km/h
Temperature: 66°F , 19°C
Dew Point: 55°F , 13°C
Humidity: 68%
Barometer: 30.06 inHg , 1017.9 hPa
Clouds: Few Clouds
Visibility: 10 miles , 16 km
Cloud details: Few Clouds 25000 ft
2018/05/23 13:54 KROC 231354Z 28005KT 10SM FEW250 19/13 A3006 RMK AO2 SLP179 T01890133 $
 
CWWB - Burlington Piers, Ontario, Canada
Distance from station: WNW 57mi, 92km
Updated: 05/23/2018 10:00am

 Wind from SW
Wind: SW 5 mph , 7 km/h
Temperature: 66°F , 19°C
Dew Point: 50°F , 10°C
Humidity: 56%
2018/05/23 14:00 CWWB 231400Z AUTO 23004KT 19/10 RMK AO1 SLP181 T01890095 51006
CYTZ - Toronto Il Vor, Ontario, Canada
Distance from station: NNW 58mi, 94km
Updated: 05/23/2018 10:00am
Clear
Clear
 Wind from SSW
Wind: SSW 9 mph , 15 km/h
Temperature: 57°F , 14°C
Dew Point: 52°F , 11°C
Humidity: 82%
Barometer: 30.05 inHg , 1017.6 hPa
Clouds: Clear
Visibility: 9 miles , 14 km
2018/05/23 14:00 CYTZ 231400Z AUTO 20008KT 9SM CLR 14/11 A3005 RMK SLP178
 
KDSV - Dansville, New York, USA
Distance from station: ESE 59mi, 95km
Updated: 05/23/2018 9:54am
Clear
Clear
 Wind from N
Wind: N 6 mph , 9 km/h
Temperature: 66°F , 19°C
Dew Point: 55°F , 13°C
Humidity: 68%
Barometer: 30.08 inHg , 1018.6 hPa
Clouds: Clear
Visibility: 10 miles , 16 km
2018/05/23 13:54 KDSV 231354Z AUTO 35005KT 10SM CLR 19/13 A3008 RMK AO2 SLP190 T01890133 $
CXTO - Toronto City, Ontario, Canada
Distance from station: NNW 60mi, 97km
Updated: 05/23/2018 10:00am

 
Temperature: 68°F , 20°C
Dew Point: 43°F , 6°C
Humidity: 40%
2018/05/23 14:00 CXTO 231400Z AUTO 20/06 RMK AO1 SLP177 T01970061 51006
 
KJHW - Jamestown, New York, USA
Distance from station: SSW 60mi, 97km
Updated: 05/23/2018 10:22am
Partly cloudy
Partly cloudy
 Wind from N
Wind: N 5 mph , 7 km/h
Temperature: 57°F , 14°C
Dew Point: 54°F , 12°C
Humidity: 88%
Barometer: 30.14 inHg , 1020.7 hPa
Clouds: Partly cloudy
Visibility: 10 miles , 16 km
Cloud details: Partly cloudy 800 ft
Partly cloudy 1200 ft
2018/05/23 14:22 KJHW 231422Z AUTO 36004KT 10SM SCT008 SCT012 14/12 A3014 RMK AO2
CYHM - Hamilton Airport, Ontario, Canada
Distance from station: WNW 61mi, 98km
Updated: 05/23/2018 10:00am
Partly cloudy
Partly cloudy
 Wind from W
Wind: W 12 mph , 19 km/h
Temperature: 66°F , 19°C
Dew Point: 52°F , 11°C
Humidity: 60%
Barometer: 30.09 inHg , 1019 hPa
Clouds: Partly cloudy
Visibility: 15 miles , 24 km
Cloud details: Partly cloudy 25000 ft
2018/05/23 14:00 CYHM 231400Z 27010KT 15SM SCT250 19/11 A3009 RMK CI3 SLP190 DENSITY ALT 1200FT
 
CXHM - Hamilton Rbg Cs, Ontario, Canada
Distance from station: WNW 62mi, 100km
Updated: 05/23/2018 10:00am

 Wind from WNW
Wind: WNW 6 mph , 9 km/h
Temperature: 68°F , 20°C
Dew Point: 54°F , 12°C
Humidity: 60%
2018/05/23 14:00 CXHM 231400Z AUTO 29005KT 20/12 RMK AO1 SLP178 T02010123 51009
CYYZ - Toronto/Pearson, Ontario, Canada
Distance from station: NW 67mi, 107km
Updated: 05/23/2018 10:00am
Clear
Clear
 Wind from WNW
Wind: WNW 10 mph , 17 km/h
Temperature: 68°F , 20°C
Dew Point: 50°F , 10°C
Humidity: 53%
Barometer: 30.05 inHg , 1017.6 hPa
Clouds: Clear
Visibility: 15 miles , 24 km
2018/05/23 14:00 CYYZ 231400Z 30009KT 15SM SKC 20/10 A3005 RMK SLP179 DENSITY ALT 1100FT
 
CWPS - Long Point (maps, Ontario, Canada
Distance from station: WSW 69mi, 111km
Updated: 05/23/2018 9:00am
NOT Current

 Wind from WSW
Wind: WSW 7 mph , 11 km/h
Temperature: 57°F , 14°C
Dew Point: 54°F , 12°C
Humidity: 88%
2018/05/23 13:00 CWPS 231300Z AUTO 25006KT 14/12 RMK AO1 SLP192 T01430124 51022
CYOO - Oshawa, Ontario, Canada
Distance from station: N 69mi, 111km
Updated: 05/23/2018 10:00am
Clear
Clear
 Wind from NW
Wind: NW 10 mph , 17 km/h
Temperature: 66°F , 19°C
Dew Point: 46°F , 8°C
Humidity: 49%
Barometer: 30.03 inHg , 1016.9 hPa
Clouds: Clear
Visibility: 9 miles , 14 km
2018/05/23 14:00 CYOO 231400Z AUTO 31009KT 9SM CLR 19/08 A3003 RMK SLP171 DENSITY ALT 900FT
 
KELZ - Wellsville, New York, USA
Distance from station: SE 70mi, 112km
Updated: 05/23/2018 9:56am
Mostly cloudy
Mostly cloudy
 Wind from N
Wind: N 9 mph , 15 km/h
Temperature: 63°F , 17°C
Dew Point: 55°F , 13°C
Humidity: 77%
Barometer: 30.11 inHg , 1019.6 hPa
Clouds: Mostly cloudy
Visibility: 10 miles , 16 km
Cloud details: Mostly cloudy 1500 ft
Mostly cloudy 2100 ft
2018/05/23 13:56 KELZ 231356Z AUTO 35008KT 10SM BKN015 BKN021 17/13 A3011 RMK AO2 SLP190 T01720133
CYKZ - Toronto Buttonvi, Ontario, Canada
Distance from station: NNW 72mi, 116km
Updated: 05/23/2018 10:00am
Few Clouds
Few Clouds
 Wind from NNW
Wind: NNW 13 mph , 20 km/h
Temperature: 66°F , 19°C
Dew Point: 46°F , 8°C
Humidity: 49%
Barometer: 30.05 inHg , 1017.6 hPa
Clouds: Few Clouds
Visibility: 15 miles , 24 km
Cloud details: Few Clouds 28000 ft
2018/05/23 14:00 CYKZ 231400Z 33011KT 15SM FEW280 19/08 A3005 RMK CI2 SLP178 DENSITY ALT 1200FT